This is the latest recevied weather packets stored in our database for station/object Allmendg2. If no packets are shown the sender has not sent any weather packets the latest 1 day(s).
| Time | Temp. | Humidity | Pressure | Rain* | Wind** | Luminosity | Snow |
|---|---|---|---|---|---|---|---|
| 1778097730 | 10.56° C | 82% | 1007.8 hPa | 2.79 mm | - | - | - |
| 1778095935 | 10.56° C | 80% | 1007 hPa | 2.79 mm | - | - | - |
| 1778090536 | 11.67° C | 79% | 1006.4 hPa | 2.79 mm | - | - | - |
| 1778088730 | 12.22° C | 77% | 1005.9 hPa | 2.79 mm | - | - | - |
| 1778085130 | 12.78° C | 75% | 1005.7 hPa | 1.52 mm | - | - | - |
| 1778079730 | 18.33° C | 57% | 1003.8 hPa | 0 mm | - | - | - |
| 1778068930 | 17.22° C | 60% | 1004.2 hPa | 0 mm | - | - | - |
| 1778067137 | 17.22° C | 60% | 1004.2 hPa | 0 mm | - | - | - |
| 1778061734 | 11.11° C | 80% | 1007.1 hPa | 0 mm | - | - | - |
| 1778059931 | 11.11° C | 80% | 1007.1 hPa | 0 mm | - | - | - |
| 1778058131 | 11.11° C | 80% | 1007.1 hPa | 0 mm | - | - | - |
| 1778054532 | 11.11° C | 80% | 1007.1 hPa | 0 mm | - | - | - |
| 1778052731 | 11.11° C | 80% | 1007.1 hPa | 0 mm | - | - | - |
| 1778050932 | 11.11° C | 80% | 1007.1 hPa | 0 mm | - | - | - |
| 1778040131 | 11.11° C | 80% | 1007.1 hPa | 0 mm | - | - | - |
| 1778036532 | 11.11° C | 80% | 1007.1 hPa | 0 mm | - | - | - |
| 1778032932 | 11.11° C | 80% | 1007.1 hPa | 0 mm | - | - | - |
| 1778031131 | 11.11° C | 80% | 1007.1 hPa | 0 mm | - | - | - |
| 1778029332 | 11.11° C | 80% | 1007.1 hPa | 0 mm | - | - | - |
| 1778020330 | 12.78° C | 77% | 1007.4 hPa | 0 mm | - | - | - |
| 1778016731 | 13.33° C | 75% | 1007.4 hPa | 0 mm | - | - | - |
* Rain since midnight (hover to see other rain measurements)
** Current wind speed in m/s (hover to see current wind gust speed)